sensor_id;sensor_type;location;lat;lon;timestamp;P1;P2;P0
24012;PMS7003;12220;50.194;18.948;2023-05-08T00:01:14;7;6;4
24012;PMS7003;12220;50.194;18.948;2023-05-08T00:03:19;7;7;5
24012;PMS7003;12220;50.194;18.948;2023-05-08T00:05:23;6;6;5
24012;PMS7003;12220;50.194;18.948;2023-05-08T00:07:25;6;5;3
24012;PMS7003;12220;50.194;18.948;2023-05-08T00:09:26;8;7;6
24012;PMS7003;12220;50.194;18.948;2023-05-08T00:11:34;9;8;7
24012;PMS7003;12220;50.194;18.948;2023-05-08T00:13:35;10;9;6
24012;PMS7003;12220;50.194;18.948;2023-05-08T00:15:37;9;8;8
24012;PMS7003;12220;50.194;18.948;2023-05-08T00:17:38;7;7;6
24012;PMS7003;12220;50.194;18.948;2023-05-08T00:19:49;4;4;4
24012;PMS7003;12220;50.194;18.948;2023-05-08T00:21:51;4;4;3
24012;PMS7003;12220;50.194;18.948;2023-05-08T00:23:53;5;5;4
24012;PMS7003;12220;50.194;18.948;2023-05-08T00:25:55;7;7;5
24012;PMS7003;12220;50.194;18.948;2023-05-08T00:28:04;3;3;3
24012;PMS7003;12220;50.194;18.948;2023-05-08T00:30:06;3;2;2
24012;PMS7003;12220;50.194;18.948;2023-05-08T00:32:10;8;8;7
24012;PMS7003;12220;50.194;18.948;2023-05-08T00:34:15;7;6;4
24012;PMS7003;12220;50.194;18.948;2023-05-08T00:36:19;4;4;3
24012;PMS7003;12220;50.194;18.948;2023-05-08T00:38:21;8;8;5
24012;PMS7003;12220;50.194;18.948;2023-05-08T00:40:22;4;4;4
24012;PMS7003;12220;50.194;18.948;2023-05-08T00:42:24;4;4;3
24012;PMS7003;12220;50.194;18.948;2023-05-08T00:44:38;4;4;4
24012;PMS7003;12220;50.194;18.948;2023-05-08T00:46:42;3;3;3
24012;PMS7003;12220;50.194;18.948;2023-05-08T00:48:48;6;5;4
24012;PMS7003;12220;50.194;18.948;2023-05-08T00:50:51;3;3;3
24012;PMS7003;12220;50.194;18.948;2023-05-08T00:52:53;4;4;4
24012;PMS7003;12220;50.194;18.948;2023-05-08T00:54:56;6;4;3
24012;PMS7003;12220;50.194;18.948;2023-05-08T00:56:57;5;5;5
24012;PMS7003;12220;50.194;18.948;2023-05-08T00:59:03;1;1;1
24012;PMS7003;12220;50.194;18.948;2023-05-08T01:01:23;3;3;3
24012;PMS7003;12220;50.194;18.948;2023-05-08T01:03:27;6;6;5
24012;PMS7003;12220;50.194;18.948;2023-05-08T01:05:29;9;6;4
24012;PMS7003;12220;50.194;18.948;2023-05-08T01:07:31;4;4;3
24012;PMS7003;12220;50.194;18.948;2023-05-08T01:09:33;7;6;5
24012;PMS7003;12220;50.194;18.948;2023-05-08T01:16:28;5;4;4
24012;PMS7003;12220;50.194;18.948;2023-05-08T01:18:51;5;5;4
24012;PMS7003;12220;50.194;18.948;2023-05-08T01:21:13;3;3;3
24012;PMS7003;12220;50.194;18.948;2023-05-08T01:23:34;3;3;3
24012;PMS7003;12220;50.194;18.948;2023-05-08T01:28:17;3;3;3
24012;PMS7003;12220;50.194;18.948;2023-05-08T01:30:41;4;4;3
24012;PMS7003;12220;50.194;18.948;2023-05-08T01:33:00;4;4;4
24012;PMS7003;12220;50.194;18.948;2023-05-08T01:35:20;6;3;3
24012;PMS7003;12220;50.194;18.948;2023-05-08T01:37:43;3;3;3
24012;PMS7003;12220;50.194;18.948;2023-05-08T01:44:48;4;4;3
24012;PMS7003;12220;50.194;18.948;2023-05-08T01:46:51;6;5;5
24012;PMS7003;12220;50.194;18.948;2023-05-08T01:51:07;7;6;4
24012;PMS7003;12220;50.194;18.948;2023-05-08T01:53:21;4;4;4
24012;PMS7003;12220;50.194;18.948;2023-05-08T01:55:33;7;5;3
24012;PMS7003;12220;50.194;18.948;2023-05-08T01:57:42;2;2;2
24012;PMS7003;12220;50.194;18.948;2023-05-08T01:59:49;3;3;2
24012;PMS7003;12220;50.194;18.948;2023-05-08T02:01:54;8;6;5
24012;PMS7003;12220;50.194;18.948;2023-05-08T02:03:58;5;5;3
24012;PMS7003;12220;50.194;18.948;2023-05-08T02:06:01;6;6;5
24012;PMS7003;12220;50.194;18.948;2023-05-08T02:08:05;5;5;4
24012;PMS7003;12220;50.194;18.948;2023-05-08T02:10:09;3;3;2
24012;PMS7003;12220;50.194;18.948;2023-05-08T02:12:16;3;3;3
24012;PMS7003;12220;50.194;18.948;2023-05-08T02:14:19;5;5;4
24012;PMS7003;12220;50.194;18.948;2023-05-08T02:16:22;4;4;4
24012;PMS7003;12220;50.194;18.948;2023-05-08T02:18:25;4;4;3
24012;PMS7003;12220;50.194;18.948;2023-05-08T02:20:30;5;5;5
24012;PMS7003;12220;50.194;18.948;2023-05-08T02:22:32;4;3;3
24012;PMS7003;12220;50.194;18.948;2023-05-08T02:24:36;3;3;3
24012;PMS7003;12220;50.194;18.948;2023-05-08T02:26:38;4;4;3
24012;PMS7003;12220;50.194;18.948;2023-05-08T02:28:45;2;2;2
24012;PMS7003;12220;50.194;18.948;2023-05-08T02:30:49;5;4;3
24012;PMS7003;12220;50.194;18.948;2023-05-08T02:32:52;6;6;4
24012;PMS7003;12220;50.194;18.948;2023-05-08T02:34:57;5;5;5
24012;PMS7003;12220;50.194;18.948;2023-05-08T02:36:59;5;5;4
24012;PMS7003;12220;50.194;18.948;2023-05-08T02:39:03;6;6;4
24012;PMS7003;12220;50.194;18.948;2023-05-08T02:41:08;1;1;0
24012;PMS7003;12220;50.194;18.948;2023-05-08T02:43:11;7;7;6
24012;PMS7003;12220;50.194;18.948;2023-05-08T02:45:13;6;6;5
24012;PMS7003;12220;50.194;18.948;2023-05-08T02:47:20;3;3;3
24012;PMS7003;12220;50.194;18.948;2023-05-08T02:51:46;5;5;5
24012;PMS7003;12220;50.194;18.948;2023-05-08T02:54:00;6;5;4
24012;PMS7003;12220;50.194;18.948;2023-05-08T02:56:11;6;5;4
24012;PMS7003;12220;50.194;18.948;2023-05-08T02:58:24;7;7;5
24012;PMS7003;12220;50.194;18.948;2023-05-08T03:00:36;5;5;4
24012;PMS7003;12220;50.194;18.948;2023-05-08T03:02:51;7;7;6
24012;PMS7003;12220;50.194;18.948;2023-05-08T03:04:58;6;6;6
24012;PMS7003;12220;50.194;18.948;2023-05-08T03:07:03;5;5;5
24012;PMS7003;12220;50.194;18.948;2023-05-08T03:09:06;4;4;3
24012;PMS7003;12220;50.194;18.948;2023-05-08T03:11:17;6;6;3
24012;PMS7003;12220;50.194;18.948;2023-05-08T03:13:30;7;6;4
24012;PMS7003;12220;50.194;18.948;2023-05-08T03:15:36;7;7;6
24012;PMS7003;12220;50.194;18.948;2023-05-08T03:17:47;6;6;6
24012;PMS7003;12220;50.194;18.948;2023-05-08T03:19:58;10;8;6
24012;PMS7003;12220;50.194;18.948;2023-05-08T03:22:05;11;8;6
24012;PMS7003;12220;50.194;18.948;2023-05-08T03:24:14;10;9;7
24012;PMS7003;12220;50.194;18.948;2023-05-08T03:26:17;8;8;7
24012;PMS7003;12220;50.194;18.948;2023-05-08T03:28:19;6;6;5
24012;PMS7003;12220;50.194;18.948;2023-05-08T03:30:21;13;8;6
24012;PMS7003;12220;50.194;18.948;2023-05-08T03:32:28;14;9;7
24012;PMS7003;12220;50.194;18.948;2023-05-08T03:34:33;9;7;6
24012;PMS7003;12220;50.194;18.948;2023-05-08T03:36:36;8;4;4
24012;PMS7003;12220;50.194;18.948;2023-05-08T03:38:37;9;7;6
24012;PMS7003;12220;50.194;18.948;2023-05-08T03:40:43;8;8;7
24012;PMS7003;12220;50.194;18.948;2023-05-08T03:42:45;10;9;8
24012;PMS7003;12220;50.194;18.948;2023-05-08T03:44:50;11;11;9
24012;PMS7003;12220;50.194;18.948;2023-05-08T03:46:54;17;15;11
24012;PMS7003;12220;50.194;18.948;2023-05-08T03:49:02;18;17;13
24012;PMS7003;12220;50.194;18.948;2023-05-08T03:51:04;19;11;10
24012;PMS7003;12220;50.194;18.948;2023-05-08T03:53:06;16;16;14
24012;PMS7003;12220;50.194;18.948;2023-05-08T03:55:07;14;11;10
24012;PMS7003;12220;50.194;18.948;2023-05-08T03:57:16;9;9;7
24012;PMS7003;12220;50.194;18.948;2023-05-08T03:59:20;12;12;10
24012;PMS7003;12220;50.194;18.948;2023-05-08T04:03:48;10;9;7
24012;PMS7003;12220;50.194;18.948;2023-05-08T04:05:58;5;5;5
24012;PMS7003;12220;50.194;18.948;2023-05-08T04:08:14;7;7;6
24012;PMS7003;12220;50.194;18.948;2023-05-08T04:10:27;11;11;7
24012;PMS7003;12220;50.194;18.948;2023-05-08T04:15:06;8;8;7
24012;PMS7003;12220;50.194;18.948;2023-05-08T04:19:44;12;9;7
24012;PMS7003;12220;50.194;18.948;2023-05-08T04:21:49;9;8;6
24012;PMS7003;12220;50.194;18.948;2023-05-08T04:23:55;8;7;5
24012;PMS7003;12220;50.194;18.948;2023-05-08T04:26:01;12;8;6
24012;PMS7003;12220;50.194;18.948;2023-05-08T04:28:09;8;8;6
24012;PMS7003;12220;50.194;18.948;2023-05-08T04:30:21;7;7;6
24012;PMS7003;12220;50.194;18.948;2023-05-08T04:32:23;5;5;5
24012;PMS7003;12220;50.194;18.948;2023-05-08T04:34:28;7;7;5
24012;PMS7003;12220;50.194;18.948;2023-05-08T04:36:29;8;8;6
24012;PMS7003;12220;50.194;18.948;2023-05-08T04:38:36;15;13;9
24012;PMS7003;12220;50.194;18.948;2023-05-08T04:40:37;12;11;8
24012;PMS7003;12220;50.194;18.948;2023-05-08T04:42:39;11;10;8
24012;PMS7003;12220;50.194;18.948;2023-05-08T04:44:43;6;6;5
24012;PMS7003;12220;50.194;18.948;2023-05-08T04:46:51;11;11;8
24012;PMS7003;12220;50.194;18.948;2023-05-08T04:48:52;14;12;9
24012;PMS7003;12220;50.194;18.948;2023-05-08T04:50:53;11;11;10
24012;PMS7003;12220;50.194;18.948;2023-05-08T04:52:55;12;10;8
24012;PMS7003;12220;50.194;18.948;2023-05-08T04:55:06;7;7;6
24012;PMS7003;12220;50.194;18.948;2023-05-08T04:57:08;9;9;7
24012;PMS7003;12220;50.194;18.948;2023-05-08T04:59:10;11;10;7
24012;PMS7003;12220;50.194;18.948;2023-05-08T05:01:11;7;7;5
24012;PMS7003;12220;50.194;18.948;2023-05-08T05:03:21;9;9;7
24012;PMS7003;12220;50.194;18.948;2023-05-08T05:05:24;13;8;6
24012;PMS7003;12220;50.194;18.948;2023-05-08T05:07:28;11;9;7
24012;PMS7003;12220;50.194;18.948;2023-05-08T05:09:29;7;7;5
24012;PMS7003;12220;50.194;18.948;2023-05-08T05:11:36;9;8;6
24012;PMS7003;12220;50.194;18.948;2023-05-08T05:13:37;12;8;5
24012;PMS7003;12220;50.194;18.948;2023-05-08T05:15:41;8;7;6
24012;PMS7003;12220;50.194;18.948;2023-05-08T05:17:42;9;9;8
24012;PMS7003;12220;50.194;18.948;2023-05-08T05:19:51;11;11;8
24012;PMS7003;12220;50.194;18.948;2023-05-08T05:21:53;10;10;8
24012;PMS7003;12220;50.194;18.948;2023-05-08T05:23:57;9;9;7
24012;PMS7003;12220;50.194;18.948;2023-05-08T05:25:58;11;11;7
24012;PMS7003;12220;50.194;18.948;2023-05-08T05:28:06;9;9;8
24012;PMS7003;12220;50.194;18.948;2023-05-08T05:30:08;9;9;6
24012;PMS7003;12220;50.194;18.948;2023-05-08T05:32:09;10;10;7
24012;PMS7003;12220;50.194;18.948;2023-05-08T05:34:11;10;9;8
24012;PMS7003;12220;50.194;18.948;2023-05-08T05:36:21;8;7;6
24012;PMS7003;12220;50.194;18.948;2023-05-08T05:38:23;6;6;4
24012;PMS7003;12220;50.194;18.948;2023-05-08T05:40:24;5;5;4
24012;PMS7003;12220;50.194;18.948;2023-05-08T05:42:27;12;8;6
24012;PMS7003;12220;50.194;18.948;2023-05-08T05:44:36;6;6;6
24012;PMS7003;12220;50.194;18.948;2023-05-08T05:46:38;8;7;6
24012;PMS7003;12220;50.194;18.948;2023-05-08T05:48:39;3;3;3
24012;PMS7003;12220;50.194;18.948;2023-05-08T05:50:41;5;5;5
24012;PMS7003;12220;50.194;18.948;2023-05-08T05:52:51;6;6;6
24012;PMS7003;12220;50.194;18.948;2023-05-08T05:54:53;6;5;4
24012;PMS7003;12220;50.194;18.948;2023-05-08T05:56:55;5;5;4
24012;PMS7003;12220;50.194;18.948;2023-05-08T05:58:56;8;8;6
24012;PMS7003;12220;50.194;18.948;2023-05-08T06:01:10;7;5;4
24012;PMS7003;12220;50.194;18.948;2023-05-08T06:03:11;8;6;6
24012;PMS7003;12220;50.194;18.948;2023-05-08T06:05:13;7;6;5
24012;PMS7003;12220;50.194;18.948;2023-05-08T06:07:14;6;6;5
24012;PMS7003;12220;50.194;18.948;2023-05-08T06:09:21;11;11;10
24012;PMS7003;12220;50.194;18.948;2023-05-08T06:11:23;9;7;4
24012;PMS7003;12220;50.194;18.948;2023-05-08T06:13:26;6;6;6
24012;PMS7003;12220;50.194;18.948;2023-05-08T06:15:28;9;9;5
24012;PMS7003;12220;50.194;18.948;2023-05-08T06:17:36;6;6;5
24012;PMS7003;12220;50.194;18.948;2023-05-08T06:19:40;9;8;6
24012;PMS7003;12220;50.194;18.948;2023-05-08T06:21:41;8;8;8
24012;PMS7003;12220;50.194;18.948;2023-05-08T06:23:43;7;7;6
24012;PMS7003;12220;50.194;18.948;2023-05-08T06:25:52;4;3;3
24012;PMS7003;12220;50.194;18.948;2023-05-08T06:27:53;8;7;5
24012;PMS7003;12220;50.194;18.948;2023-05-08T06:29:54;7;6;5
24012;PMS7003;12220;50.194;18.948;2023-05-08T06:31:56;6;5;5
24012;PMS7003;12220;50.194;18.948;2023-05-08T06:34:06;6;6;5
24012;PMS7003;12220;50.194;18.948;2023-05-08T06:36:09;8;8;6
24012;PMS7003;12220;50.194;18.948;2023-05-08T06:38:11;10;9;5
24012;PMS7003;12220;50.194;18.948;2023-05-08T06:40:12;7;7;7
24012;PMS7003;12220;50.194;18.948;2023-05-08T06:42:21;5;5;4
24012;PMS7003;12220;50.194;18.948;2023-05-08T06:44:23;5;5;5
24012;PMS7003;12220;50.194;18.948;2023-05-08T06:46:24;6;6;5
24012;PMS7003;12220;50.194;18.948;2023-05-08T06:48:26;12;11;8
24012;PMS7003;12220;50.194;18.948;2023-05-08T06:50:37;8;8;5
24012;PMS7003;12220;50.194;18.948;2023-05-08T06:52:40;6;6;6
24012;PMS7003;12220;50.194;18.948;2023-05-08T06:54:42;6;6;5
24012;PMS7003;12220;50.194;18.948;2023-05-08T06:56:43;8;8;7
24012;PMS7003;12220;50.194;18.948;2023-05-08T06:58:51;5;5;5
24012;PMS7003;12220;50.194;18.948;2023-05-08T07:00:53;5;5;4
24012;PMS7003;12220;50.194;18.948;2023-05-08T07:02:54;8;6;5
24012;PMS7003;12220;50.194;18.948;2023-05-08T07:04:56;8;8;7
24012;PMS7003;12220;50.194;18.948;2023-05-08T07:07:06;7;6;6
24012;PMS7003;12220;50.194;18.948;2023-05-08T07:09:08;8;5;4
24012;PMS7003;12220;50.194;18.948;2023-05-08T07:11:10;9;8;6
24012;PMS7003;12220;50.194;18.948;2023-05-08T07:13:12;7;7;7
24012;PMS7003;12220;50.194;18.948;2023-05-08T07:15:21;8;8;6
24012;PMS7003;12220;50.194;18.948;2023-05-08T07:17:23;7;7;6
24012;PMS7003;12220;50.194;18.948;2023-05-08T07:19:24;8;8;6
24012;PMS7003;12220;50.194;18.948;2023-05-08T07:21:25;5;5;5
24012;PMS7003;12220;50.194;18.948;2023-05-08T07:23:36;5;4;3
24012;PMS7003;12220;50.194;18.948;2023-05-08T07:25:38;7;4;2
24012;PMS7003;12220;50.194;18.948;2023-05-08T07:27:39;12;6;6
24012;PMS7003;12220;50.194;18.948;2023-05-08T07:29:40;6;6;4
24012;PMS7003;12220;50.194;18.948;2023-05-08T07:31:52;7;7;5
24012;PMS7003;12220;50.194;18.948;2023-05-08T07:33:53;8;5;4
24012;PMS7003;12220;50.194;18.948;2023-05-08T07:35:54;9;8;6
24012;PMS7003;12220;50.194;18.948;2023-05-08T07:37:56;5;5;4
24012;PMS7003;12220;50.194;18.948;2023-05-08T07:40:07;7;7;6
24012;PMS7003;12220;50.194;18.948;2023-05-08T07:42:08;9;9;8
24012;PMS7003;12220;50.194;18.948;2023-05-08T07:44:10;7;7;6
24012;PMS7003;12220;50.194;18.948;2023-05-08T07:48:22;6;6;5
24012;PMS7003;12220;50.194;18.948;2023-05-08T07:50:23;9;9;7
24012;PMS7003;12220;50.194;18.948;2023-05-08T07:52:31;10;9;8
24012;PMS7003;12220;50.194;18.948;2023-05-08T07:54:32;8;8;6
24012;PMS7003;12220;50.194;18.948;2023-05-08T07:56:36;8;7;5
24012;PMS7003;12220;50.194;18.948;2023-05-08T07:58:38;6;6;5
24012;PMS7003;12220;50.194;18.948;2023-05-08T08:00:41;6;6;4
24012;PMS7003;12220;50.194;18.948;2023-05-08T08:02:44;8;7;5
24012;PMS7003;12220;50.194;18.948;2023-05-08T08:04:51;8;8;7
24012;PMS7003;12220;50.194;18.948;2023-05-08T08:06:53;4;4;4
24012;PMS7003;12220;50.194;18.948;2023-05-08T08:08:57;10;7;4
24012;PMS7003;12220;50.194;18.948;2023-05-08T08:10:59;5;4;3
24012;PMS7003;12220;50.194;18.948;2023-05-08T08:13:06;6;6;6
24012;PMS7003;12220;50.194;18.948;2023-05-08T08:15:08;7;7;6
24012;PMS7003;12220;50.194;18.948;2023-05-08T08:17:13;6;6;4
24012;PMS7003;12220;50.194;18.948;2023-05-08T08:19:14;8;7;6
24012;PMS7003;12220;50.194;18.948;2023-05-08T08:21:21;7;6;5
24012;PMS7003;12220;50.194;18.948;2023-05-08T08:23:23;8;8;6
24012;PMS7003;12220;50.194;18.948;2023-05-08T08:25:24;7;7;6
24012;PMS7003;12220;50.194;18.948;2023-05-08T08:27:27;6;6;5
24012;PMS7003;12220;50.194;18.948;2023-05-08T08:29:36;8;8;7
24012;PMS7003;12220;50.194;18.948;2023-05-08T08:31:40;5;5;5
24012;PMS7003;12220;50.194;18.948;2023-05-08T08:33:44;7;5;4
24012;PMS7003;12220;50.194;18.948;2023-05-08T08:35:46;7;7;7
24012;PMS7003;12220;50.194;18.948;2023-05-08T08:37:54;7;7;7
24012;PMS7003;12220;50.194;18.948;2023-05-08T08:39:58;7;7;6
24012;PMS7003;12220;50.194;18.948;2023-05-08T08:42:00;5;5;4
24012;PMS7003;12220;50.194;18.948;2023-05-08T08:44:02;9;9;7
24012;PMS7003;12220;50.194;18.948;2023-05-08T08:46:12;8;7;6
24012;PMS7003;12220;50.194;18.948;2023-05-08T08:48:29;7;6;6
24012;PMS7003;12220;50.194;18.948;2023-05-08T08:50:31;7;7;6
24012;PMS7003;12220;50.194;18.948;2023-05-08T08:52:38;11;9;8
24012;PMS7003;12220;50.194;18.948;2023-05-08T08:54:45;6;6;5
24012;PMS7003;12220;50.194;18.948;2023-05-08T08:56:49;8;7;5
24012;PMS7003;12220;50.194;18.948;2023-05-08T08:58:54;8;8;7
24012;PMS7003;12220;50.194;18.948;2023-05-08T09:01:00;10;8;7
24012;PMS7003;12220;50.194;18.948;2023-05-08T09:03:06;7;5;5
24012;PMS7003;12220;50.194;18.948;2023-05-08T09:05:08;8;7;6
24012;PMS7003;12220;50.194;18.948;2023-05-08T09:07:10;7;7;6
24012;PMS7003;12220;50.194;18.948;2023-05-08T09:09:12;6;6;5
24012;PMS7003;12220;50.194;18.948;2023-05-08T09:11:13;11;7;7
24012;PMS7003;12220;50.194;18.948;2023-05-08T09:13:20;11;8;8
24012;PMS7003;12220;50.194;18.948;2023-05-08T09:15:21;7;7;7
24012;PMS7003;12220;50.194;18.948;2023-05-08T09:17:23;8;8;6
24012;PMS7003;12220;50.194;18.948;2023-05-08T09:19:25;9;7;7
24012;PMS7003;12220;50.194;18.948;2023-05-08T09:21:35;6;6;5
24012;PMS7003;12220;50.194;18.948;2023-05-08T09:25:52;6;6;5
24012;PMS7003;12220;50.194;18.948;2023-05-08T09:27:54;10;9;7
24012;PMS7003;12220;50.194;18.948;2023-05-08T09:30:08;11;11;8
24012;PMS7003;12220;50.194;18.948;2023-05-08T09:32:19;11;8;7
24012;PMS7003;12220;50.194;18.948;2023-05-08T09:34:26;6;6;5
24012;PMS7003;12220;50.194;18.948;2023-05-08T09:36:29;10;9;8
24012;PMS7003;12220;50.194;18.948;2023-05-08T09:40:40;12;11;9
24012;PMS7003;12220;50.194;18.948;2023-05-08T09:42:41;7;7;6
24012;PMS7003;12220;50.194;18.948;2023-05-08T09:44:43;10;10;8
24012;PMS7003;12220;50.194;18.948;2023-05-08T09:46:49;14;11;8
24012;PMS7003;12220;50.194;18.948;2023-05-08T09:48:52;8;8;7
24012;PMS7003;12220;50.194;18.948;2023-05-08T09:51:04;8;8;7
24012;PMS7003;12220;50.194;18.948;2023-05-08T09:53:07;7;7;6
24012;PMS7003;12220;50.194;18.948;2023-05-08T09:55:09;6;6;5
24012;PMS7003;12220;50.194;18.948;2023-05-08T09:57:12;7;7;6
24012;PMS7003;12220;50.194;18.948;2023-05-08T10:01:35;7;6;5
24012;PMS7003;12220;50.194;18.948;2023-05-08T10:05:49;7;7;7
24012;PMS7003;12220;50.194;18.948;2023-05-08T10:07:52;9;5;4
24012;PMS7003;12220;50.194;18.948;2023-05-08T10:09:57;5;5;5
24012;PMS7003;12220;50.194;18.948;2023-05-08T10:12:03;6;6;6
24012;PMS7003;12220;50.194;18.948;2023-05-08T10:14:08;6;6;4
24012;PMS7003;12220;50.194;18.948;2023-05-08T10:16:11;9;7;6
24012;PMS7003;12220;50.194;18.948;2023-05-08T10:18:18;5;5;5
24012;PMS7003;12220;50.194;18.948;2023-05-08T10:20:24;7;7;6
24012;PMS7003;12220;50.194;18.948;2023-05-08T10:22:30;6;6;5
24012;PMS7003;12220;50.194;18.948;2023-05-08T10:24:35;6;5;5
24012;PMS7003;12220;50.194;18.948;2023-05-08T10:26:57;6;6;5
24012;PMS7003;12220;50.194;18.948;2023-05-08T10:29:12;7;7;6
24012;PMS7003;12220;50.194;18.948;2023-05-08T10:31:19;9;9;7
24012;PMS7003;12220;50.194;18.948;2023-05-08T10:33:28;8;8;6
24012;PMS7003;12220;50.194;18.948;2023-05-08T10:35:33;6;6;5
24012;PMS7003;12220;50.194;18.948;2023-05-08T10:37:37;7;7;6
24012;PMS7003;12220;50.194;18.948;2023-05-08T10:39:51;4;4;3
24012;PMS7003;12220;50.194;18.948;2023-05-08T10:41:54;7;5;4
24012;PMS7003;12220;50.194;18.948;2023-05-08T10:43:55;7;7;6
24012;PMS7003;12220;50.194;18.948;2023-05-08T10:46:01;7;7;6
24012;PMS7003;12220;50.194;18.948;2023-05-08T10:50:38;5;5;5
24012;PMS7003;12220;50.194;18.948;2023-05-08T10:52:53;7;7;6
24012;PMS7003;12220;50.194;18.948;2023-05-08T10:57:32;7;7;6
24012;PMS7003;12220;50.194;18.948;2023-05-08T10:59:36;7;7;7
24012;PMS7003;12220;50.194;18.948;2023-05-08T11:01:42;5;5;5
24012;PMS7003;12220;50.194;18.948;2023-05-08T11:03:49;6;6;6
24012;PMS7003;12220;50.194;18.948;2023-05-08T11:05:54;5;5;4
24012;PMS7003;12220;50.194;18.948;2023-05-08T11:07:58;6;6;5
24012;PMS7003;12220;50.194;18.948;2023-05-08T11:14:22;7;7;7
24012;PMS7003;12220;50.194;18.948;2023-05-08T11:21:13;11;11;9
24012;PMS7003;12220;50.194;18.948;2023-05-08T11:23:32;14;12;11
24012;PMS7003;12220;50.194;18.948;2023-05-08T11:32:09;6;6;5
24012;PMS7003;12220;50.194;18.948;2023-05-08T11:36:30;7;7;6
24012;PMS7003;12220;50.194;18.948;2023-05-08T11:38:36;8;8;6
24012;PMS7003;12220;50.194;18.948;2023-05-08T11:41:21;12;10;7
24012;PMS7003;12220;50.194;18.948;2023-05-08T11:42:56;8;8;6
24012;PMS7003;12220;50.194;18.948;2023-05-08T11:47:07;9;9;8
24012;PMS7003;12220;50.194;18.948;2023-05-08T11:49:16;8;6;5
24012;PMS7003;12220;50.194;18.948;2023-05-08T11:51:18;8;8;6
24012;PMS7003;12220;50.194;18.948;2023-05-08T11:53:21;8;8;7
24012;PMS7003;12220;50.194;18.948;2023-05-08T11:55:23;16;10;9
24012;PMS7003;12220;50.194;18.948;2023-05-08T11:57:26;11;9;7
24012;PMS7003;12220;50.194;18.948;2023-05-08T11:59:33;6;6;5
24012;PMS7003;12220;50.194;18.948;2023-05-08T12:01:36;9;9;8
24012;PMS7003;12220;50.194;18.948;2023-05-08T12:03:38;12;11;10
24012;PMS7003;12220;50.194;18.948;2023-05-08T12:05:42;8;8;7
24012;PMS7003;12220;50.194;18.948;2023-05-08T12:07:44;7;5;5
24012;PMS7003;12220;50.194;18.948;2023-05-08T12:09:46;8;7;6
24012;PMS7003;12220;50.194;18.948;2023-05-08T12:11:56;5;5;5
24012;PMS7003;12220;50.194;18.948;2023-05-08T12:14:00;4;4;4
24012;PMS7003;12220;50.194;18.948;2023-05-08T12:16:02;6;6;5
24012;PMS7003;12220;50.194;18.948;2023-05-08T12:18:03;5;5;4
24012;PMS7003;12220;50.194;18.948;2023-05-08T12:20:15;6;6;5
24012;PMS7003;12220;50.194;18.948;2023-05-08T12:22:17;5;5;5
24012;PMS7003;12220;50.194;18.948;2023-05-08T12:24:19;8;6;5
24012;PMS7003;12220;50.194;18.948;2023-05-08T12:26:23;5;5;4
24012;PMS7003;12220;50.194;18.948;2023-05-08T12:28:28;6;6;5
24012;PMS7003;12220;50.194;18.948;2023-05-08T12:30:32;11;8;7
24012;PMS7003;12220;50.194;18.948;2023-05-08T12:32:35;6;6;6
24012;PMS7003;12220;50.194;18.948;2023-05-08T12:34:38;4;4;4
24012;PMS7003;12220;50.194;18.948;2023-05-08T12:36:40;5;5;5
24012;PMS7003;12220;50.194;18.948;2023-05-08T12:38:41;5;5;4
24012;PMS7003;12220;50.194;18.948;2023-05-08T12:40:43;5;5;5
24012;PMS7003;12220;50.194;18.948;2023-05-08T12:42:52;4;4;4
24012;PMS7003;12220;50.194;18.948;2023-05-08T12:44:53;3;3;2
24012;PMS7003;12220;50.194;18.948;2023-05-08T12:46:55;6;6;5
24012;PMS7003;12220;50.194;18.948;2023-05-08T12:49:01;4;4;4
24012;PMS7003;12220;50.194;18.948;2023-05-08T12:51:09;5;5;5
24012;PMS7003;12220;50.194;18.948;2023-05-08T12:53:12;6;6;5
24012;PMS7003;12220;50.194;18.948;2023-05-08T12:57:23;4;4;3
24012;PMS7003;12220;50.194;18.948;2023-05-08T12:59:27;4;4;4
24012;PMS7003;12220;50.194;18.948;2023-05-08T13:01:29;7;7;5
24012;PMS7003;12220;50.194;18.948;2023-05-08T13:03:30;5;5;4
24012;PMS7003;12220;50.194;18.948;2023-05-08T13:05:34;5;3;3
24012;PMS7003;12220;50.194;18.948;2023-05-08T13:07:36;6;6;5
24012;PMS7003;12220;50.194;18.948;2023-05-08T13:12:04;5;5;5
24012;PMS7003;12220;50.194;18.948;2023-05-08T13:14:09;4;4;3
24012;PMS7003;12220;50.194;18.948;2023-05-08T13:16:10;6;6;6
24012;PMS7003;12220;50.194;18.948;2023-05-08T13:18:12;4;4;4
24012;PMS7003;12220;50.194;18.948;2023-05-08T13:20:19;15;13;7
24012;PMS7003;12220;50.194;18.948;2023-05-08T13:22:20;10;9;7
24012;PMS7003;12220;50.194;18.948;2023-05-08T13:24:26;7;7;5
24012;PMS7003;12220;50.194;18.948;2023-05-08T13:26:30;6;5;4
24012;PMS7003;12220;50.194;18.948;2023-05-08T13:28:33;6;6;5
24012;PMS7003;12220;50.194;18.948;2023-05-08T13:30:35;10;9;7
24012;PMS7003;12220;50.194;18.948;2023-05-08T13:32:37;4;4;4
24012;PMS7003;12220;50.194;18.948;2023-05-08T13:34:38;6;6;6
24012;PMS7003;12220;50.194;18.948;2023-05-08T13:36:48;5;5;4
24012;PMS7003;12220;50.194;18.948;2023-05-08T13:38:50;4;4;4
24012;PMS7003;12220;50.194;18.948;2023-05-08T13:40:56;4;4;4
24012;PMS7003;12220;50.194;18.948;2023-05-08T13:42:57;4;4;3
24012;PMS7003;12220;50.194;18.948;2023-05-08T13:45:04;4;4;4
24012;PMS7003;12220;50.194;18.948;2023-05-08T13:47:06;6;6;5
24012;PMS7003;12220;50.194;18.948;2023-05-08T13:49:07;3;2;2
24012;PMS7003;12220;50.194;18.948;2023-05-08T13:51:08;4;4;3
24012;PMS7003;12220;50.194;18.948;2023-05-08T13:53:18;3;2;2
24012;PMS7003;12220;50.194;18.948;2023-05-08T13:55:20;6;4;4
24012;PMS7003;12220;50.194;18.948;2023-05-08T13:57:22;3;3;2
24012;PMS7003;12220;50.194;18.948;2023-05-08T13:59:24;3;3;3
24012;PMS7003;12220;50.194;18.948;2023-05-08T14:01:33;4;4;3
24012;PMS7003;12220;50.194;18.948;2023-05-08T14:03:35;4;4;4
24012;PMS7003;12220;50.194;18.948;2023-05-08T14:05:36;2;2;2
24012;PMS7003;12220;50.194;18.948;2023-05-08T14:07:37;4;4;4
24012;PMS7003;12220;50.194;18.948;2023-05-08T14:09:48;3;3;2
24012;PMS7003;12220;50.194;18.948;2023-05-08T14:11:50;4;4;3
24012;PMS7003;12220;50.194;18.948;2023-05-08T14:13:51;2;2;1
24012;PMS7003;12220;50.194;18.948;2023-05-08T14:15:53;5;5;4
24012;PMS7003;12220;50.194;18.948;2023-05-08T14:18:03;3;3;3
24012;PMS7003;12220;50.194;18.948;2023-05-08T14:20:05;7;5;5
24012;PMS7003;12220;50.194;18.948;2023-05-08T14:22:07;5;3;3
24012;PMS7003;12220;50.194;18.948;2023-05-08T14:24:11;7;3;3
24012;PMS7003;12220;50.194;18.948;2023-05-08T14:26:18;5;5;4
24012;PMS7003;12220;50.194;18.948;2023-05-08T14:28:23;4;2;2
24012;PMS7003;12220;50.194;18.948;2023-05-08T14:30:25;3;3;3
24012;PMS7003;12220;50.194;18.948;2023-05-08T14:32:27;3;3;2
24012;PMS7003;12220;50.194;18.948;2023-05-08T14:34:33;2;2;2
24012;PMS7003;12220;50.194;18.948;2023-05-08T14:36:34;3;3;2
24012;PMS7003;12220;50.194;18.948;2023-05-08T14:38:36;3;3;2
24012;PMS7003;12220;50.194;18.948;2023-05-08T14:40:37;3;3;3
24012;PMS7003;12220;50.194;18.948;2023-05-08T14:42:48;2;2;1
24012;PMS7003;12220;50.194;18.948;2023-05-08T14:44:49;4;4;3
24012;PMS7003;12220;50.194;18.948;2023-05-08T14:46:51;4;4;4
24012;PMS7003;12220;50.194;18.948;2023-05-08T14:48:53;3;3;3
24012;PMS7003;12220;50.194;18.948;2023-05-08T14:51:03;3;2;2